sensor_id;sensor_type;location;lat;lon;timestamp;P1;durP1;ratioP1;P2;durP2;ratioP2
75890;SDS011;64571;47.512;19.054;2023-04-15T00:01:33;8.50;;;4.47;;
75890;SDS011;64571;47.512;19.054;2023-04-15T00:04:38;9.23;;;4.30;;
75890;SDS011;64571;47.512;19.054;2023-04-15T00:07:41;8.27;;;4.43;;
75890;SDS011;64571;47.512;19.054;2023-04-15T00:10:43;9.48;;;4.50;;
75890;SDS011;64571;47.512;19.054;2023-04-15T00:13:47;9.52;;;4.95;;
75890;SDS011;64571;47.512;19.054;2023-04-15T00:16:50;10.88;;;6.05;;
75890;SDS011;64571;47.512;19.054;2023-04-15T00:19:57;12.63;;;6.47;;
75890;SDS011;64571;47.512;19.054;2023-04-15T00:23:01;11.57;;;6.20;;
75890;SDS011;64571;47.512;19.054;2023-04-15T00:26:05;11.43;;;5.80;;
75890;SDS011;64571;47.512;19.054;2023-04-15T00:29:08;12.75;;;6.18;;
75890;SDS011;64571;47.512;19.054;2023-04-15T00:32:11;11.35;;;5.68;;
75890;SDS011;64571;47.512;19.054;2023-04-15T00:35:14;10.53;;;5.30;;
75890;SDS011;64571;47.512;19.054;2023-04-15T00:38:17;11.75;;;5.65;;
75890;SDS011;64571;47.512;19.054;2023-04-15T00:41:20;9.65;;;5.28;;
75890;SDS011;64571;47.512;19.054;2023-04-15T00:44:24;11.93;;;5.37;;
75890;SDS011;64571;47.512;19.054;2023-04-15T00:47:27;11.23;;;5.37;;
75890;SDS011;64571;47.512;19.054;2023-04-15T00:50:32;10.80;;;5.70;;
75890;SDS011;64571;47.512;19.054;2023-04-15T00:53:34;9.68;;;5.03;;
75890;SDS011;64571;47.512;19.054;2023-04-15T00:56:37;10.73;;;5.87;;
75890;SDS011;64571;47.512;19.054;2023-04-15T00:59:40;10.10;;;4.90;;
75890;SDS011;64571;47.512;19.054;2023-04-15T01:02:43;9.30;;;5.07;;
75890;SDS011;64571;47.512;19.054;2023-04-15T01:05:47;10.13;;;5.27;;
75890;SDS011;64571;47.512;19.054;2023-04-15T01:08:50;13.30;;;7.15;;
75890;SDS011;64571;47.512;19.054;2023-04-15T01:11:53;13.62;;;7.07;;
75890;SDS011;64571;47.512;19.054;2023-04-15T01:14:55;15.68;;;8.18;;
75890;SDS011;64571;47.512;19.054;2023-04-15T01:17:58;16.08;;;7.75;;
75890;SDS011;64571;47.512;19.054;2023-04-15T01:21:01;15.77;;;7.87;;
75890;SDS011;64571;47.512;19.054;2023-04-15T01:24:07;16.17;;;8.27;;
75890;SDS011;64571;47.512;19.054;2023-04-15T01:27:11;14.38;;;7.80;;
75890;SDS011;64571;47.512;19.054;2023-04-15T01:30:13;16.35;;;7.72;;
75890;SDS011;64571;47.512;19.054;2023-04-15T01:33:16;16.20;;;8.48;;
75890;SDS011;64571;47.512;19.054;2023-04-15T01:36:19;15.90;;;7.83;;
75890;SDS011;64571;47.512;19.054;2023-04-15T01:39:22;15.82;;;8.30;;
75890;SDS011;64571;47.512;19.054;2023-04-15T01:42:24;14.52;;;7.97;;
75890;SDS011;64571;47.512;19.054;2023-04-15T01:45:28;15.98;;;8.15;;
75890;SDS011;64571;47.512;19.054;2023-04-15T01:48:31;15.40;;;7.57;;
75890;SDS011;64571;47.512;19.054;2023-04-15T01:51:34;15.03;;;7.30;;
75890;SDS011;64571;47.512;19.054;2023-04-15T01:54:37;15.30;;;8.25;;
75890;SDS011;64571;47.512;19.054;2023-04-15T01:57:39;18.92;;;8.25;;
75890;SDS011;64571;47.512;19.054;2023-04-15T02:00:42;15.82;;;7.97;;
75890;SDS011;64571;47.512;19.054;2023-04-15T02:03:45;13.98;;;7.40;;
75890;SDS011;64571;47.512;19.054;2023-04-15T02:06:49;15.13;;;7.67;;
75890;SDS011;64571;47.512;19.054;2023-04-15T02:09:52;12.95;;;6.62;;
75890;SDS011;64571;47.512;19.054;2023-04-15T02:12:54;15.65;;;7.10;;
75890;SDS011;64571;47.512;19.054;2023-04-15T02:15:57;16.42;;;7.68;;
75890;SDS011;64571;47.512;19.054;2023-04-15T02:19:00;13.40;;;7.18;;
75890;SDS011;64571;47.512;19.054;2023-04-15T02:22:03;12.53;;;6.70;;
75890;SDS011;64571;47.512;19.054;2023-04-15T02:25:06;13.95;;;7.30;;
75890;SDS011;64571;47.512;19.054;2023-04-15T02:28:10;14.45;;;6.80;;
75890;SDS011;64571;47.512;19.054;2023-04-15T02:31:13;13.13;;;6.78;;
75890;SDS011;64571;47.512;19.054;2023-04-15T02:34:16;15.30;;;6.85;;
75890;SDS011;64571;47.512;19.054;2023-04-15T02:37:19;13.37;;;6.37;;
75890;SDS011;64571;47.512;19.054;2023-04-15T02:40:21;13.35;;;6.78;;
75890;SDS011;64571;47.512;19.054;2023-04-15T02:43:24;13.05;;;6.68;;
75890;SDS011;64571;47.512;19.054;2023-04-15T02:46:27;13.02;;;6.97;;
75890;SDS011;64571;47.512;19.054;2023-04-15T02:49:29;14.50;;;7.57;;
75890;SDS011;64571;47.512;19.054;2023-04-15T02:52:32;13.27;;;7.00;;
75890;SDS011;64571;47.512;19.054;2023-04-15T02:55:34;13.55;;;7.18;;
75890;SDS011;64571;47.512;19.054;2023-04-15T02:58:38;15.93;;;7.68;;
75890;SDS011;64571;47.512;19.054;2023-04-15T03:01:41;12.52;;;6.90;;
75890;SDS011;64571;47.512;19.054;2023-04-15T03:04:44;13.15;;;6.78;;
75890;SDS011;64571;47.512;19.054;2023-04-15T03:07:47;12.37;;;6.83;;
75890;SDS011;64571;47.512;19.054;2023-04-15T03:10:50;13.40;;;6.93;;
75890;SDS011;64571;47.512;19.054;2023-04-15T03:13:54;12.18;;;6.47;;
75890;SDS011;64571;47.512;19.054;2023-04-15T03:16:57;12.77;;;6.72;;
75890;SDS011;64571;47.512;19.054;2023-04-15T03:20:01;14.50;;;6.37;;
75890;SDS011;64571;47.512;19.054;2023-04-15T03:23:06;14.20;;;6.77;;
75890;SDS011;64571;47.512;19.054;2023-04-15T03:26:08;13.45;;;6.90;;
75890;SDS011;64571;47.512;19.054;2023-04-15T03:29:11;12.35;;;6.37;;
75890;SDS011;64571;47.512;19.054;2023-04-15T03:32:14;11.50;;;6.18;;
75890;SDS011;64571;47.512;19.054;2023-04-15T03:35:16;14.85;;;7.65;;
75890;SDS011;64571;47.512;19.054;2023-04-15T03:38:19;13.30;;;6.97;;
75890;SDS011;64571;47.512;19.054;2023-04-15T03:41:21;11.30;;;6.22;;
75890;SDS011;64571;47.512;19.054;2023-04-15T03:44:27;13.13;;;7.40;;
75890;SDS011;64571;47.512;19.054;2023-04-15T03:47:30;12.52;;;6.75;;
75890;SDS011;64571;47.512;19.054;2023-04-15T03:50:33;13.73;;;6.87;;
75890;SDS011;64571;47.512;19.054;2023-04-15T03:53:35;14.17;;;8.13;;
75890;SDS011;64571;47.512;19.054;2023-04-15T03:56:38;14.73;;;7.25;;
75890;SDS011;64571;47.512;19.054;2023-04-15T03:59:40;11.80;;;6.50;;
75890;SDS011;64571;47.512;19.054;2023-04-15T04:02:43;13.38;;;6.78;;
75890;SDS011;64571;47.512;19.054;2023-04-15T04:05:47;13.45;;;6.47;;
75890;SDS011;64571;47.512;19.054;2023-04-15T04:08:49;16.87;;;7.27;;
75890;SDS011;64571;47.512;19.054;2023-04-15T04:11:52;11.10;;;5.68;;
75890;SDS011;64571;47.512;19.054;2023-04-15T04:14:54;10.27;;;5.40;;
75890;SDS011;64571;47.512;19.054;2023-04-15T04:17:57;12.55;;;6.80;;
75890;SDS011;64571;47.512;19.054;2023-04-15T04:20:59;14.15;;;6.50;;
75890;SDS011;64571;47.512;19.054;2023-04-15T04:24:02;13.53;;;6.57;;
75890;SDS011;64571;47.512;19.054;2023-04-15T04:27:05;11.50;;;6.45;;
75890;SDS011;64571;47.512;19.054;2023-04-15T04:30:08;12.00;;;6.62;;
75890;SDS011;64571;47.512;19.054;2023-04-15T04:33:10;10.65;;;5.87;;
75890;SDS011;64571;47.512;19.054;2023-04-15T04:36:13;13.30;;;6.45;;
75890;SDS011;64571;47.512;19.054;2023-04-15T04:39:15;12.23;;;6.30;;
75890;SDS011;64571;47.512;19.054;2023-04-15T04:42:18;11.73;;;5.72;;
75890;SDS011;64571;47.512;19.054;2023-04-15T04:45:20;10.82;;;5.82;;
75890;SDS011;64571;47.512;19.054;2023-04-15T04:48:23;12.02;;;6.43;;
75890;SDS011;64571;47.512;19.054;2023-04-15T04:51:26;9.80;;;5.12;;
75890;SDS011;64571;47.512;19.054;2023-04-15T04:54:29;13.13;;;5.80;;
75890;SDS011;64571;47.512;19.054;2023-04-15T04:57:32;10.43;;;5.60;;
75890;SDS011;64571;47.512;19.054;2023-04-15T05:00:37;9.88;;;5.47;;
75890;SDS011;64571;47.512;19.054;2023-04-15T05:03:39;10.25;;;5.10;;
75890;SDS011;64571;47.512;19.054;2023-04-15T05:06:43;10.48;;;4.68;;
75890;SDS011;64571;47.512;19.054;2023-04-15T05:09:45;9.53;;;4.77;;
75890;SDS011;64571;47.512;19.054;2023-04-15T05:12:48;10.45;;;4.30;;
75890;SDS011;64571;47.512;19.054;2023-04-15T05:15:51;7.87;;;4.25;;
75890;SDS011;64571;47.512;19.054;2023-04-15T05:18:54;8.70;;;4.70;;
75890;SDS011;64571;47.512;19.054;2023-04-15T05:21:57;10.88;;;5.05;;
75890;SDS011;64571;47.512;19.054;2023-04-15T05:24:59;8.47;;;4.33;;
75890;SDS011;64571;47.512;19.054;2023-04-15T05:28:02;10.32;;;5.32;;
75890;SDS011;64571;47.512;19.054;2023-04-15T05:31:04;8.95;;;4.97;;
75890;SDS011;64571;47.512;19.054;2023-04-15T05:34:08;11.48;;;4.95;;
75890;SDS011;64571;47.512;19.054;2023-04-15T05:37:11;9.50;;;5.30;;
75890;SDS011;64571;47.512;19.054;2023-04-15T05:40:14;9.73;;;5.10;;
75890;SDS011;64571;47.512;19.054;2023-04-15T05:43:16;11.45;;;4.90;;
75890;SDS011;64571;47.512;19.054;2023-04-15T05:46:19;9.07;;;4.65;;
75890;SDS011;64571;47.512;19.054;2023-04-15T05:49:21;9.93;;;5.75;;
75890;SDS011;64571;47.512;19.054;2023-04-15T05:52:24;10.70;;;5.97;;
75890;SDS011;64571;47.512;19.054;2023-04-15T05:55:26;9.67;;;4.87;;
75890;SDS011;64571;47.512;19.054;2023-04-15T05:58:29;11.30;;;5.80;;
75890;SDS011;64571;47.512;19.054;2023-04-15T06:01:32;10.02;;;5.70;;
75890;SDS011;64571;47.512;19.054;2023-04-15T06:04:35;10.65;;;5.50;;
75890;SDS011;64571;47.512;19.054;2023-04-15T06:07:38;10.90;;;5.87;;
75890;SDS011;64571;47.512;19.054;2023-04-15T06:10:40;9.57;;;5.70;;
75890;SDS011;64571;47.512;19.054;2023-04-15T06:13:43;10.88;;;5.87;;
75890;SDS011;64571;47.512;19.054;2023-04-15T06:16:45;10.00;;;5.95;;
75890;SDS011;64571;47.512;19.054;2023-04-15T06:19:48;13.45;;;5.87;;
75890;SDS011;64571;47.512;19.054;2023-04-15T06:22:53;11.10;;;6.20;;
75890;SDS011;64571;47.512;19.054;2023-04-15T06:25:55;11.63;;;6.17;;
75890;SDS011;64571;47.512;19.054;2023-04-15T06:28:58;10.18;;;5.75;;
75890;SDS011;64571;47.512;19.054;2023-04-15T06:32:00;8.73;;;5.30;;
75890;SDS011;64571;47.512;19.054;2023-04-15T06:35:03;10.38;;;5.00;;
75890;SDS011;64571;47.512;19.054;2023-04-15T06:38:06;10.00;;;5.25;;
75890;SDS011;64571;47.512;19.054;2023-04-15T06:41:09;12.93;;;5.23;;
75890;SDS011;64571;47.512;19.054;2023-04-15T06:44:11;9.93;;;4.90;;
75890;SDS011;64571;47.512;19.054;2023-04-15T06:47:14;11.52;;;5.32;;
75890;SDS011;64571;47.512;19.054;2023-04-15T06:50:16;9.85;;;5.07;;
75890;SDS011;64571;47.512;19.054;2023-04-15T06:53:19;9.38;;;5.20;;
75890;SDS011;64571;47.512;19.054;2023-04-15T06:56:23;10.67;;;5.03;;
75890;SDS011;64571;47.512;19.054;2023-04-15T06:59:25;9.80;;;5.10;;
75890;SDS011;64571;47.512;19.054;2023-04-15T07:02:28;8.02;;;4.65;;
75890;SDS011;64571;47.512;19.054;2023-04-15T07:05:31;10.95;;;5.37;;
75890;SDS011;64571;47.512;19.054;2023-04-15T07:08:33;11.38;;;5.15;;
75890;SDS011;64571;47.512;19.054;2023-04-15T07:11:36;11.50;;;5.50;;
75890;SDS011;64571;47.512;19.054;2023-04-15T07:14:38;21.60;;;5.80;;
75890;SDS011;64571;47.512;19.054;2023-04-15T07:17:41;14.82;;;4.90;;
75890;SDS011;64571;47.512;19.054;2023-04-15T07:20:46;7.43;;;4.55;;
75890;SDS011;64571;47.512;19.054;2023-04-15T07:23:49;8.85;;;4.93;;
75890;SDS011;64571;47.512;19.054;2023-04-15T07:26:52;8.63;;;4.70;;
75890;SDS011;64571;47.512;19.054;2023-04-15T07:30:02;9.13;;;4.90;;
75890;SDS011;64571;47.512;19.054;2023-04-15T07:33:04;7.32;;;4.28;;
75890;SDS011;64571;47.512;19.054;2023-04-15T07:36:08;7.55;;;4.45;;
75890;SDS011;64571;47.512;19.054;2023-04-15T07:39:11;7.68;;;4.60;;
75890;SDS011;64571;47.512;19.054;2023-04-15T07:42:15;10.13;;;4.73;;
75890;SDS011;64571;47.512;19.054;2023-04-15T07:45:18;8.77;;;4.68;;
75890;SDS011;64571;47.512;19.054;2023-04-15T07:48:21;6.20;;;3.45;;
75890;SDS011;64571;47.512;19.054;2023-04-15T07:51:23;8.55;;;4.82;;
75890;SDS011;64571;47.512;19.054;2023-04-15T07:54:26;6.50;;;3.60;;
75890;SDS011;64571;47.512;19.054;2023-04-15T07:57:29;7.20;;;3.37;;
75890;SDS011;64571;47.512;19.054;2023-04-15T08:00:32;6.12;;;3.10;;
75890;SDS011;64571;47.512;19.054;2023-04-15T08:03:34;7.47;;;3.45;;
75890;SDS011;64571;47.512;19.054;2023-04-15T08:06:37;6.53;;;3.42;;
75890;SDS011;64571;47.512;19.054;2023-04-15T08:09:41;6.72;;;3.40;;
75890;SDS011;64571;47.512;19.054;2023-04-15T08:12:43;6.60;;;3.23;;
75890;SDS011;64571;47.512;19.054;2023-04-15T08:15:52;6.47;;;3.60;;
75890;SDS011;64571;47.512;19.054;2023-04-15T08:19:15;6.95;;;3.20;;
75890;SDS011;64571;47.512;19.054;2023-04-15T08:22:18;7.68;;;2.80;;
75890;SDS011;64571;47.512;19.054;2023-04-15T08:25:26;8.38;;;2.95;;
75890;SDS011;64571;47.512;19.054;2023-04-15T08:28:29;8.60;;;3.10;;
75890;SDS011;64571;47.512;19.054;2023-04-15T08:31:31;6.30;;;2.62;;
75890;SDS011;64571;47.512;19.054;2023-04-15T08:34:34;7.00;;;1.80;;
75890;SDS011;64571;47.512;19.054;2023-04-15T08:37:37;5.07;;;2.35;;
75890;SDS011;64571;47.512;19.054;2023-04-15T08:40:40;5.47;;;2.50;;
75890;SDS011;64571;47.512;19.054;2023-04-15T08:43:46;5.13;;;2.13;;
75890;SDS011;64571;47.512;19.054;2023-04-15T08:47:08;6.57;;;2.35;;
75890;SDS011;64571;47.512;19.054;2023-04-15T08:50:15;4.80;;;2.35;;
75890;SDS011;64571;47.512;19.054;2023-04-15T08:53:19;5.32;;;2.80;;
75890;SDS011;64571;47.512;19.054;2023-04-15T08:56:25;6.80;;;3.10;;
75890;SDS011;64571;47.512;19.054;2023-04-15T08:59:29;5.30;;;2.80;;
75890;SDS011;64571;47.512;19.054;2023-04-15T09:02:32;7.03;;;2.35;;
75890;SDS011;64571;47.512;19.054;2023-04-15T09:05:35;7.15;;;3.55;;
75890;SDS011;64571;47.512;19.054;2023-04-15T09:08:38;7.78;;;2.75;;
75890;SDS011;64571;47.512;19.054;2023-04-15T09:11:41;6.95;;;3.03;;
75890;SDS011;64571;47.512;19.054;2023-04-15T09:14:44;6.23;;;2.70;;
75890;SDS011;64571;47.512;19.054;2023-04-15T09:17:48;7.00;;;2.25;;
75890;SDS011;64571;47.512;19.054;2023-04-15T09:20:51;5.05;;;2.00;;
75890;SDS011;64571;47.512;19.054;2023-04-15T09:23:58;5.53;;;1.60;;
75890;SDS011;64571;47.512;19.054;2023-04-15T09:27:02;5.07;;;1.60;;
75890;SDS011;64571;47.512;19.054;2023-04-15T09:30:07;5.70;;;1.60;;
75890;SDS011;64571;47.512;19.054;2023-04-15T09:33:10;5.95;;;1.42;;
75890;SDS011;64571;47.512;19.054;2023-04-15T09:36:15;4.72;;;1.62;;
75890;SDS011;64571;47.512;19.054;2023-04-15T09:39:18;6.12;;;2.10;;
75890;SDS011;64571;47.512;19.054;2023-04-15T09:42:21;4.85;;;1.75;;
75890;SDS011;64571;47.512;19.054;2023-04-15T09:45:28;6.33;;;2.50;;
75890;SDS011;64571;47.512;19.054;2023-04-15T09:48:31;9.55;;;2.25;;
75890;SDS011;64571;47.512;19.054;2023-04-15T09:51:34;5.93;;;2.85;;
75890;SDS011;64571;47.512;19.054;2023-04-15T09:54:37;6.87;;;3.20;;
75890;SDS011;64571;47.512;19.054;2023-04-15T09:57:40;16.00;;;3.50;;
75890;SDS011;64571;47.512;19.054;2023-04-15T10:00:43;8.53;;;3.47;;
75890;SDS011;64571;47.512;19.054;2023-04-15T10:03:46;7.30;;;3.25;;
75890;SDS011;64571;47.512;19.054;2023-04-15T10:06:49;5.22;;;2.40;;
75890;SDS011;64571;47.512;19.054;2023-04-15T10:09:52;8.77;;;2.75;;
75890;SDS011;64571;47.512;19.054;2023-04-15T10:12:56;5.15;;;2.47;;
75890;SDS011;64571;47.512;19.054;2023-04-15T10:19:08;5.65;;;2.08;;
75890;SDS011;64571;47.512;19.054;2023-04-15T10:22:13;5.32;;;2.40;;
75890;SDS011;64571;47.512;19.054;2023-04-15T10:25:15;5.62;;;2.17;;
75890;SDS011;64571;47.512;19.054;2023-04-15T10:28:19;4.37;;;1.62;;
75890;SDS011;64571;47.512;19.054;2023-04-15T10:31:26;3.83;;;1.00;;
75890;SDS011;64571;47.512;19.054;2023-04-15T10:34:29;4.25;;;1.20;;
75890;SDS011;64571;47.512;19.054;2023-04-15T10:37:36;4.25;;;1.20;;
75890;SDS011;64571;47.512;19.054;2023-04-15T10:40:40;3.97;;;1.17;;
75890;SDS011;64571;47.512;19.054;2023-04-15T10:43:52;4.43;;;0.80;;
75890;SDS011;64571;47.512;19.054;2023-04-15T10:46:55;4.10;;;0.97;;
75890;SDS011;64571;47.512;19.054;2023-04-15T10:50:00;3.53;;;0.80;;
75890;SDS011;64571;47.512;19.054;2023-04-15T10:53:03;3.67;;;0.90;;
75890;SDS011;64571;47.512;19.054;2023-04-15T10:56:06;4.32;;;0.90;;
75890;SDS011;64571;47.512;19.054;2023-04-15T10:59:11;6.12;;;1.55;;
75890;SDS011;64571;47.512;19.054;2023-04-15T11:02:13;4.40;;;1.70;;
75890;SDS011;64571;47.512;19.054;2023-04-15T11:05:17;4.07;;;1.58;;
75890;SDS011;64571;47.512;19.054;2023-04-15T11:08:21;4.90;;;1.60;;
75890;SDS011;64571;47.512;19.054;2023-04-15T11:12:09;4.03;;;1.30;;
75890;SDS011;64571;47.512;19.054;2023-04-15T11:18:52;3.57;;;0.90;;
75890;SDS011;64571;47.512;19.054;2023-04-15T11:21:55;3.70;;;1.00;;
75890;SDS011;64571;47.512;19.054;2023-04-15T11:24:58;3.70;;;1.00;;
75890;SDS011;64571;47.512;19.054;2023-04-15T11:28:01;3.15;;;0.73;;
75890;SDS011;64571;47.512;19.054;2023-04-15T11:31:22;3.72;;;1.00;;
75890;SDS011;64571;47.512;19.054;2023-04-15T11:34:29;4.13;;;0.93;;
75890;SDS011;64571;47.512;19.054;2023-04-15T11:37:35;3.22;;;0.68;;
75890;SDS011;64571;47.512;19.054;2023-04-15T11:40:38;3.67;;;1.12;;
75890;SDS011;64571;47.512;19.054;2023-04-15T11:43:41;3.97;;;1.15;;
75890;SDS011;64571;47.512;19.054;2023-04-15T11:46:43;4.28;;;0.95;;
75890;SDS011;64571;47.512;19.054;2023-04-15T11:49:47;4.93;;;1.10;;
75890;SDS011;64571;47.512;19.054;2023-04-15T11:52:56;4.55;;;1.02;;
75890;SDS011;64571;47.512;19.054;2023-04-15T11:56:00;4.10;;;1.10;;
75890;SDS011;64571;47.512;19.054;2023-04-15T11:59:03;3.40;;;0.80;;
75890;SDS011;64571;47.512;19.054;2023-04-15T12:02:11;3.42;;;1.00;;
75890;SDS011;64571;47.512;19.054;2023-04-15T12:05:15;4.50;;;0.90;;
75890;SDS011;64571;47.512;19.054;2023-04-15T12:08:18;4.12;;;1.17;;
75890;SDS011;64571;47.512;19.054;2023-04-15T12:11:27;4.10;;;1.10;;
75890;SDS011;64571;47.512;19.054;2023-04-15T12:14:38;3.70;;;0.90;;
75890;SDS011;64571;47.512;19.054;2023-04-15T12:17:41;4.32;;;1.00;;
75890;SDS011;64571;47.512;19.054;2023-04-15T12:20:53;4.13;;;1.43;;
75890;SDS011;64571;47.512;19.054;2023-04-15T12:23:56;4.22;;;1.62;;
75890;SDS011;64571;47.512;19.054;2023-04-15T12:27:02;3.50;;;1.25;;
75890;SDS011;64571;47.512;19.054;2023-04-15T12:30:05;4.22;;;1.45;;
75890;SDS011;64571;47.512;19.054;2023-04-15T12:33:09;6.75;;;1.60;;
75890;SDS011;64571;47.512;19.054;2023-04-15T12:36:14;5.07;;;1.43;;
75890;SDS011;64571;47.512;19.054;2023-04-15T12:39:20;4.00;;;1.30;;
75890;SDS011;64571;47.512;19.054;2023-04-15T12:42:23;4.45;;;1.30;;
75890;SDS011;64571;47.512;19.054;2023-04-15T12:45:26;3.40;;;1.02;;
75890;SDS011;64571;47.512;19.054;2023-04-15T12:48:31;4.28;;;1.67;;
75890;SDS011;64571;47.512;19.054;2023-04-15T12:51:34;3.70;;;1.10;;
75890;SDS011;64571;47.512;19.054;2023-04-15T12:54:37;4.47;;;1.30;;
75890;SDS011;64571;47.512;19.054;2023-04-15T12:57:40;4.05;;;1.60;;
75890;SDS011;64571;47.512;19.054;2023-04-15T13:00:43;4.00;;;1.10;;
75890;SDS011;64571;47.512;19.054;2023-04-15T13:03:45;6.03;;;1.33;;
75890;SDS011;64571;47.512;19.054;2023-04-15T13:06:49;4.70;;;1.17;;
75890;SDS011;64571;47.512;19.054;2023-04-15T13:09:51;4.70;;;1.42;;
75890;SDS011;64571;47.512;19.054;2023-04-15T13:12:54;5.72;;;1.58;;
75890;SDS011;64571;47.512;19.054;2023-04-15T13:15:57;4.55;;;1.37;;
75890;SDS011;64571;47.512;19.054;2023-04-15T13:19:02;3.90;;;1.33;;
75890;SDS011;64571;47.512;19.054;2023-04-15T13:22:05;4.53;;;1.30;;
75890;SDS011;64571;47.512;19.054;2023-04-15T13:25:09;4.53;;;1.60;;
75890;SDS011;64571;47.512;19.054;2023-04-15T13:28:12;4.60;;;2.00;;
75890;SDS011;64571;47.512;19.054;2023-04-15T13:31:15;4.10;;;1.40;;
75890;SDS011;64571;47.512;19.054;2023-04-15T13:34:17;4.78;;;1.50;;
75890;SDS011;64571;47.512;19.054;2023-04-15T13:37:25;3.77;;;1.33;;
75890;SDS011;64571;47.512;19.054;2023-04-15T13:40:29;4.82;;;1.75;;
75890;SDS011;64571;47.512;19.054;2023-04-15T13:43:32;4.12;;;1.55;;
75890;SDS011;64571;47.512;19.054;2023-04-15T13:46:35;4.10;;;1.40;;
75890;SDS011;64571;47.512;19.054;2023-04-15T13:49:39;4.25;;;1.45;;
75890;SDS011;64571;47.512;19.054;2023-04-15T13:52:42;5.43;;;1.17;;
75890;SDS011;64571;47.512;19.054;2023-04-15T13:55:44;5.78;;;1.70;;
75890;SDS011;64571;47.512;19.054;2023-04-15T13:58:47;5.65;;;1.90;;
75890;SDS011;64571;47.512;19.054;2023-04-15T14:01:49;4.80;;;1.60;;
75890;SDS011;64571;47.512;19.054;2023-04-15T14:04:52;5.32;;;2.20;;
75890;SDS011;64571;47.512;19.054;2023-04-15T14:07:54;7.27;;;2.50;;
75890;SDS011;64571;47.512;19.054;2023-04-15T14:10:57;7.30;;;2.50;;
75890;SDS011;64571;47.512;19.054;2023-04-15T14:14:00;7.45;;;3.20;;
75890;SDS011;64571;47.512;19.054;2023-04-15T14:17:02;7.35;;;2.70;;
75890;SDS011;64571;47.512;19.054;2023-04-15T14:20:06;6.82;;;2.65;;
75890;SDS011;64571;47.512;19.054;2023-04-15T14:23:10;6.37;;;2.07;;
75890;SDS011;64571;47.512;19.054;2023-04-15T14:26:13;4.87;;;1.48;;
75890;SDS011;64571;47.512;19.054;2023-04-15T14:29:16;4.62;;;1.80;;
75890;SDS011;64571;47.512;19.054;2023-04-15T14:32:19;4.82;;;1.77;;
75890;SDS011;64571;47.512;19.054;2023-04-15T14:35:22;9.60;;;1.87;;
75890;SDS011;64571;47.512;19.054;2023-04-15T14:38:27;5.63;;;2.10;;
75890;SDS011;64571;47.512;19.054;2023-04-15T14:41:30;6.97;;;3.00;;
75890;SDS011;64571;47.512;19.054;2023-04-15T14:44:32;8.32;;;3.92;;
75890;SDS011;64571;47.512;19.054;2023-04-15T14:47:35;9.55;;;4.12;;
75890;SDS011;64571;47.512;19.054;2023-04-15T14:50:37;8.82;;;4.45;;
75890;SDS011;64571;47.512;19.054;2023-04-15T14:53:41;8.83;;;4.10;;
75890;SDS011;64571;47.512;19.054;2023-04-15T14:56:43;9.45;;;4.28;;
75890;SDS011;64571;47.512;19.054;2023-04-15T14:59:46;8.77;;;4.10;;
75890;SDS011;64571;47.512;19.054;2023-04-15T15:02:48;6.87;;;3.33;;
75890;SDS011;64571;47.512;19.054;2023-04-15T15:05:51;9.10;;;4.00;;
75890;SDS011;64571;47.512;19.054;2023-04-15T15:08:53;8.30;;;3.00;;
75890;SDS011;64571;47.512;19.054;2023-04-15T15:11:56;7.82;;;3.55;;
75890;SDS011;64571;47.512;19.054;2023-04-15T15:14:59;6.35;;;2.70;;
75890;SDS011;64571;47.512;19.054;2023-04-15T15:18:06;5.65;;;2.17;;
75890;SDS011;64571;47.512;19.054;2023-04-15T15:21:09;5.68;;;1.80;;
75890;SDS011;64571;47.512;19.054;2023-04-15T15:24:12;4.20;;;1.40;;
75890;SDS011;64571;47.512;19.054;2023-04-15T15:27:14;3.80;;;1.10;;
75890;SDS011;64571;47.512;19.054;2023-04-15T15:30:17;4.28;;;1.20;;
75890;SDS011;64571;47.512;19.054;2023-04-15T15:33:19;7.60;;;1.40;;
75890;SDS011;64571;47.512;19.054;2023-04-15T15:36:22;4.37;;;1.55;;
75890;SDS011;64571;47.512;19.054;2023-04-15T15:39:25;5.17;;;1.60;;
75890;SDS011;64571;47.512;19.054;2023-04-15T15:42:30;4.55;;;1.45;;
75890;SDS011;64571;47.512;19.054;2023-04-15T15:45:33;6.57;;;1.95;;
75890;SDS011;64571;47.512;19.054;2023-04-15T15:48:36;4.87;;;1.83;;
75890;SDS011;64571;47.512;19.054;2023-04-15T15:51:39;5.78;;;1.95;;
75890;SDS011;64571;47.512;19.054;2023-04-15T15:54:41;5.33;;;1.50;;
75890;SDS011;64571;47.512;19.054;2023-04-15T15:57:44;5.35;;;1.87;;
75890;SDS011;64571;47.512;19.054;2023-04-15T16:00:47;5.62;;;1.95;;
75890;SDS011;64571;47.512;19.054;2023-04-15T16:03:50;5.40;;;2.17;;
75890;SDS011;64571;47.512;19.054;2023-04-15T16:06:53;4.90;;;1.80;;
75890;SDS011;64571;47.512;19.054;2023-04-15T16:09:56;7.10;;;2.20;;
75890;SDS011;64571;47.512;19.054;2023-04-15T16:12:58;6.43;;;2.20;;
75890;SDS011;64571;47.512;19.054;2023-04-15T16:16:01;5.82;;;2.28;;
75890;SDS011;64571;47.512;19.054;2023-04-15T16:19:03;5.18;;;1.90;;
75890;SDS011;64571;47.512;19.054;2023-04-15T16:22:07;4.82;;;2.25;;
75890;SDS011;64571;47.512;19.054;2023-04-15T16:25:09;6.30;;;2.20;;
75890;SDS011;64571;47.512;19.054;2023-04-15T16:28:12;7.85;;;3.15;;
75890;SDS011;64571;47.512;19.054;2023-04-15T16:31:28;6.70;;;3.00;;
75890;SDS011;64571;47.512;19.054;2023-04-15T16:34:31;7.85;;;3.05;;
75890;SDS011;64571;47.512;19.054;2023-04-15T16:37:33;7.68;;;3.33;;
75890;SDS011;64571;47.512;19.054;2023-04-15T16:40:38;7.47;;;3.10;;
75890;SDS011;64571;47.512;19.054;2023-04-15T16:43:42;9.10;;;3.60;;
75890;SDS011;64571;47.512;19.054;2023-04-15T16:46:44;7.07;;;3.12;;
75890;SDS011;64571;47.512;19.054;2023-04-15T16:49:47;7.32;;;3.83;;
75890;SDS011;64571;47.512;19.054;2023-04-15T16:52:49;7.85;;;3.40;;
75890;SDS011;64571;47.512;19.054;2023-04-15T16:55:52;6.80;;;2.67;;
75890;SDS011;64571;47.512;19.054;2023-04-15T16:58:55;7.25;;;2.90;;
75890;SDS011;64571;47.512;19.054;2023-04-15T17:01:57;7.07;;;3.28;;
75890;SDS011;64571;47.512;19.054;2023-04-15T17:05:00;7.43;;;2.97;;
75890;SDS011;64571;47.512;19.054;2023-04-15T17:08:03;6.85;;;2.70;;
75890;SDS011;64571;47.512;19.054;2023-04-15T17:11:06;9.13;;;3.13;;
75890;SDS011;64571;47.512;19.054;2023-04-15T17:14:09;7.30;;;2.87;;
75890;SDS011;64571;47.512;19.054;2023-04-15T17:17:12;6.97;;;3.30;;
75890;SDS011;64571;47.512;19.054;2023-04-15T17:20:14;6.25;;;3.17;;
75890;SDS011;64571;47.512;19.054;2023-04-15T17:23:18;7.03;;;3.30;;
75890;SDS011;64571;47.512;19.054;2023-04-15T17:26:20;7.13;;;3.40;;
75890;SDS011;64571;47.512;19.054;2023-04-15T17:29:23;8.23;;;3.33;;
75890;SDS011;64571;47.512;19.054;2023-04-15T17:32:26;10.13;;;3.70;;
75890;SDS011;64571;47.512;19.054;2023-04-15T17:35:33;9.27;;;3.65;;
75890;SDS011;64571;47.512;19.054;2023-04-15T17:38:35;7.07;;;3.65;;
75890;SDS011;64571;47.512;19.054;2023-04-15T17:41:38;7.53;;;3.77;;
75890;SDS011;64571;47.512;19.054;2023-04-15T17:44:40;8.50;;;4.00;;
75890;SDS011;64571;47.512;19.054;2023-04-15T17:47:43;9.38;;;4.28;;
75890;SDS011;64571;47.512;19.054;2023-04-15T17:50:45;13.93;;;6.20;;
75890;SDS011;64571;47.512;19.054;2023-04-15T17:53:49;9.52;;;4.78;;
75890;SDS011;64571;47.512;19.054;2023-04-15T17:56:52;13.10;;;5.80;;
75890;SDS011;64571;47.512;19.054;2023-04-15T17:59:58;11.98;;;5.40;;
75890;SDS011;64571;47.512;19.054;2023-04-15T18:03:00;9.35;;;4.90;;
75890;SDS011;64571;47.512;19.054;2023-04-15T18:06:03;11.55;;;4.95;;
75890;SDS011;64571;47.512;19.054;2023-04-15T18:09:06;12.82;;;6.22;;
75890;SDS011;64571;47.512;19.054;2023-04-15T18:12:10;8.73;;;4.97;;